Time;durP1;ratioP1;P1;durP2;ratioP2;P2;SDS_P1;SDS_P2;PMS_P1;PMS_P2;Temp;Humidity;BMP_temperature;BMP_pressure;BME280_temperature;BME280_humidity;BME280_pressure;Samples;Min_cycle;Max_cycle;Signal;HPM_P1;HPM_P2
2021/11/06 00:00:36;;;;;;;33.47;30.10;;;4.40;99.90;;;;;;4984605;28;20700;-93
2021/11/06 00:03:06;;;;;;;33.67;30.50;;;4.40;99.90;;;;;;4995572;28;20618;-93
2021/11/06 00:05:33;;;;;;;33.33;30.57;;;4.40;99.90;;;;;;4971010;28;20673;-94
2021/11/06 00:08:00;;;;;;;33.53;30.57;;;4.30;99.90;;;;;;4993740;28;20744;-93
2021/11/06 00:10:27;;;;;;;33.07;29.97;;;4.30;99.90;;;;;;4982071;28;20849;-94
2021/11/06 00:12:56;;;;;;;29.50;26.40;;;4.20;99.90;;;;;;4975878;28;20617;-94
2021/11/06 00:15:24;;;;;;;27.27;24.63;;;4.20;99.90;;;;;;4988724;28;20642;-95
2021/11/06 00:17:51;;;;;;;32.90;27.20;;;4.30;99.90;;;;;;5019342;28;20701;-95
2021/11/06 00:20:19;;;;;;;30.67;27.60;;;4.30;99.90;;;;;;4994336;28;20669;-94
2021/11/06 00:22:47;;;;;;;32.73;29.87;;;4.40;99.90;;;;;;4977403;28;20667;-95
2021/11/06 00:25:14;;;;;;;30.93;27.63;;;4.40;99.90;;;;;;5004797;28;20712;-93
2021/11/06 00:27:44;;;;;;;41.90;36.07;;;4.50;99.90;;;;;;4979396;28;21220;-93
2021/11/06 00:30:15;;;;;;;32.17;27.33;;;4.50;99.90;;;;;;4985479;28;20731;-93
2021/11/06 00:32:44;;;;;;;33.33;28.50;;;4.60;99.90;;;;;;4984088;28;20687;-93
2021/11/06 00:35:13;;;;;;;42.83;36.47;;;4.60;99.90;;;;;;4990017;28;20639;-93
2021/11/06 00:37:41;;;;;;;44.50;38.10;;;4.70;99.90;;;;;;4995931;28;20733;-93
2021/11/06 00:40:10;;;;;;;39.63;35.50;;;4.90;99.90;;;;;;4991105;28;20668;-91
2021/11/06 00:42:38;;;;;;;37.50;33.50;;;4.90;99.90;;;;;;4977960;28;20695;-90
2021/11/06 00:45:07;;;;;;;35.67;32.17;;;4.80;99.90;;;;;;4985138;28;20638;-91
2021/11/06 00:47:36;;;;;;;84.13;39.87;;;5.00;99.90;;;;;;4967207;28;20644;-92
2021/11/06 00:50:03;;;;;;;54.67;39.27;;;5.00;99.90;;;;;;4977599;28;20780;-92
2021/11/06 00:52:30;;;;;;;49.47;37.17;;;5.10;99.90;;;;;;4971941;28;20712;-93
2021/11/06 00:54:57;;;;;;;114.83;45.13;;;5.20;99.90;;;;;;4987827;28;20635;-93
2021/11/06 00:57:24;;;;;;;264.63;63.20;;;5.30;99.90;;;;;;4974482;28;20645;-92
2021/11/06 00:59:51;;;;;;;377.60;72.40;;;5.30;99.90;;;;;;4977382;28;20745;-92
2021/11/06 01:02:18;;;;;;;258.90;61.90;;;5.40;99.90;;;;;;4965550;28;20629;-93
2021/11/06 01:04:52;;;;;;;246.83;57.87;;;5.40;99.90;;;;;;4977106;28;20717;-92
2021/11/06 01:07:19;;;;;;;414.03;58.70;;;5.50;99.90;;;;;;4978039;28;20629;-92
2021/11/06 01:09:47;;;;;;;484.10;71.67;;;5.60;99.90;;;;;;4984292;28;20666;-92
2021/11/06 01:12:14;;;;;;;233.53;46.33;;;5.60;99.90;;;;;;4985811;28;20672;-92
2021/11/06 01:14:41;;;;;;;441.93;44.80;;;5.60;99.90;;;;;;4987517;28;21109;-92
2021/11/06 01:17:08;;;;;;;382.37;57.93;;;5.60;99.90;;;;;;4975972;28;21293;-92
2021/11/06 01:19:35;;;;;;;351.43;48.80;;;5.50;99.90;;;;;;4986471;28;20665;-92
2021/11/06 01:22:03;;;;;;;378.70;45.03;;;5.50;99.90;;;;;;4983753;28;21194;-92
2021/11/06 01:24:30;;;;;;;323.57;55.57;;;5.40;99.90;;;;;;4979471;28;21379;-92
2021/11/06 01:26:58;;;;;;;278.93;47.50;;;5.40;99.90;;;;;;4993881;28;20644;-92
2021/11/06 01:29:25;;;;;;;323.20;41.20;;;5.40;99.90;;;;;;4971500;28;21022;-92
2021/11/06 01:31:52;;;;;;;371.93;44.47;;;5.40;99.90;;;;;;4985519;28;20667;-92
2021/11/06 01:34:20;;;;;;;227.87;44.60;;;5.40;99.90;;;;;;4967422;28;20590;-93
2021/11/06 01:36:46;;;;;;;240.43;49.93;;;5.40;99.90;;;;;;4972555;28;20633;-92
2021/11/06 01:39:15;;;;;;;257.73;58.33;;;5.30;99.90;;;;;;4990458;28;21083;-92
2021/11/06 01:41:41;;;;;;;209.13;51.90;;;5.30;99.90;;;;;;4975411;28;20633;-92
2021/11/06 01:44:14;;;;;;;177.57;45.70;;;5.30;99.90;;;;;;4979096;28;20630;-92
2021/11/06 01:46:41;;;;;;;287.03;52.10;;;5.30;99.90;;;;;;4979162;28;20955;-91
2021/11/06 01:49:08;;;;;;;190.13;42.17;;;5.30;99.90;;;;;;5001875;28;20629;-92
2021/11/06 01:51:35;;;;;;;297.83;48.00;;;5.30;99.90;;;;;;4975120;28;20691;-93
2021/11/06 01:54:02;;;;;;;263.57;42.13;;;5.30;99.90;;;;;;5018368;28;20629;-92
2021/11/06 01:56:31;;;;;;;278.50;45.27;;;5.30;99.90;;;;;;4983907;28;20661;-92
2021/11/06 01:58:57;;;;;;;213.70;39.83;;;5.30;99.90;;;;;;4984231;28;20772;-92
2021/11/06 02:01:25;;;;;;;257.67;38.67;;;5.20;99.90;;;;;;4976530;28;20700;-92
2021/11/06 02:03:53;;;;;;;250.27;41.70;;;5.20;99.90;;;;;;4983548;28;20644;-92
2021/11/06 02:06:20;;;;;;;265.43;44.63;;;5.20;99.90;;;;;;4971659;28;20661;-92
2021/11/06 02:08:47;;;;;;;231.37;42.63;;;5.20;99.90;;;;;;5005037;28;20622;-92
2021/11/06 02:11:14;;;;;;;349.93;44.37;;;5.20;99.90;;;;;;4994735;28;20715;-92
2021/11/06 02:13:43;;;;;;;344.17;56.63;;;5.10;99.90;;;;;;5022978;28;20646;-92
2021/11/06 02:16:09;;;;;;;289.73;62.93;;;5.00;99.90;;;;;;4974089;28;21176;-93
2021/11/06 02:18:39;;;;;;;268.70;55.60;;;5.00;99.90;;;;;;4997886;28;21024;-93
2021/11/06 02:21:09;;;;;;;260.30;43.30;;;5.00;99.90;;;;;;4973870;28;20681;-93
2021/11/06 02:23:37;;;;;;;390.17;59.70;;;5.10;99.90;;;;;;4983170;28;20642;-92
2021/11/06 02:26:05;;;;;;;374.37;47.00;;;5.10;99.90;;;;;;5003927;28;20743;-92
2021/11/06 02:28:32;;;;;;;286.03;44.63;;;5.10;99.90;;;;;;4986746;28;20667;-92
2021/11/06 02:31:00;;;;;;;383.30;49.57;;;5.00;99.90;;;;;;4973671;28;20680;-92
2021/11/06 02:33:27;;;;;;;320.33;45.17;;;5.00;99.90;;;;;;4977568;28;20713;-92
2021/11/06 02:35:54;;;;;;;451.47;49.90;;;5.00;99.90;;;;;;4987994;28;20643;-91
2021/11/06 02:38:23;;;;;;;377.17;43.87;;;5.00;99.90;;;;;;4980306;28;20630;-91
2021/11/06 02:40:51;;;;;;;371.93;44.57;;;5.00;99.90;;;;;;4991000;28;20660;-92
2021/11/06 02:43:18;;;;;;;294.50;39.53;;;5.00;99.90;;;;;;4969317;28;20751;-92
2021/11/06 02:45:45;;;;;;;376.83;47.60;;;5.00;99.90;;;;;;4986400;28;21218;-92
2021/11/06 02:48:12;;;;;;;291.60;35.00;;;5.10;99.90;;;;;;4985331;28;21082;-92
2021/11/06 02:50:39;;;;;;;289.83;38.27;;;5.20;99.90;;;;;;4973959;28;20669;-92
2021/11/06 02:53:07;;;;;;;304.50;35.37;;;5.20;99.90;;;;;;4980445;28;20643;-92
2021/11/06 02:55:36;;;;;;;178.80;27.23;;;5.20;99.90;;;;;;4978623;28;20808;-92
2021/11/06 02:58:03;;;;;;;254.50;34.67;;;5.30;99.90;;;;;;4985014;28;20641;-92
2021/11/06 03:00:32;;;;;;;213.20;27.80;;;5.20;99.90;;;;;;4983918;28;20655;-92
2021/11/06 03:03:00;;;;;;;152.73;28.00;;;5.30;99.90;;;;;;4974367;28;21167;-91
2021/11/06 03:05:27;;;;;;;254.93;32.03;;;5.20;99.90;;;;;;4973530;28;20632;-91
2021/11/06 03:07:56;;;;;;;151.83;27.63;;;5.30;99.90;;;;;;4971262;28;20733;-90
2021/11/06 03:10:23;;;;;;;185.87;30.10;;;5.20;99.90;;;;;;4982652;28;20768;-91
2021/11/06 03:12:52;;;;;;;177.33;30.27;;;5.20;99.90;;;;;;4983185;28;20634;-91
2021/11/06 03:15:20;;;;;;;164.97;25.80;;;5.20;99.90;;;;;;4984648;28;20637;-91
2021/11/06 03:17:46;;;;;;;208.27;27.90;;;5.30;99.90;;;;;;4986108;28;21234;-90
2021/11/06 03:20:15;;;;;;;237.47;29.00;;;5.30;99.90;;;;;;4977017;28;21237;-90
2021/11/06 03:22:42;;;;;;;190.00;29.20;;;5.20;99.90;;;;;;4987252;28;20731;-90
2021/11/06 03:25:11;;;;;;;191.37;30.03;;;5.20;99.90;;;;;;4993352;28;20644;-90
2021/11/06 03:27:38;;;;;;;159.30;26.33;;;5.20;99.90;;;;;;4972583;28;20634;-90
2021/11/06 03:30:08;;;;;;;222.17;29.47;;;5.20;99.90;;;;;;5004279;28;21004;-91
2021/11/06 03:32:35;;;;;;;222.63;28.80;;;5.30;99.90;;;;;;5006701;28;20660;-91
2021/11/06 03:35:02;;;;;;;200.73;28.10;;;5.30;99.90;;;;;;4989533;28;20640;-91
2021/11/06 03:37:29;;;;;;;174.50;27.03;;;5.30;99.90;;;;;;4969420;28;20634;-91
2021/11/06 03:39:56;;;;;;;229.93;28.63;;;5.30;99.90;;;;;;4985002;28;20645;-91
2021/11/06 03:42:23;;;;;;;298.97;35.77;;;5.30;99.90;;;;;;4972980;28;20625;-90
2021/11/06 03:44:50;;;;;;;244.80;33.87;;;5.20;99.90;;;;;;4990488;28;20602;-91
2021/11/06 03:47:18;;;;;;;356.30;33.70;;;5.20;99.90;;;;;;5010996;28;20643;-91
2021/11/06 03:49:45;;;;;;;433.37;40.33;;;5.30;99.90;;;;;;4994349;28;20878;-92
2021/11/06 03:52:13;;;;;;;313.03;31.63;;;5.20;99.90;;;;;;4981187;28;20645;-90
2021/11/06 03:54:41;;;;;;;255.23;30.43;;;5.20;99.90;;;;;;4972166;28;20653;-91
2021/11/06 03:57:09;;;;;;;467.10;40.90;;;5.10;99.90;;;;;;4968583;28;20654;-92
2021/11/06 03:59:36;;;;;;;427.90;36.60;;;5.10;99.90;;;;;;4971440;28;20666;-92
2021/11/06 04:02:05;;;;;;;306.70;33.70;;;5.20;99.90;;;;;;4968097;28;20979;-91
2021/11/06 04:04:34;;;;;;;424.10;36.93;;;5.20;99.90;;;;;;4996973;28;20703;-91
2021/11/06 04:07:01;;;;;;;417.80;39.13;;;5.20;99.90;;;;;;4976039;28;21031;-93
2021/11/06 04:09:28;;;;;;;424.97;36.73;;;5.20;99.90;;;;;;4987001;28;20748;-93
2021/11/06 04:11:55;;;;;;;430.37;36.67;;;5.20;99.90;;;;;;4975368;28;21273;-92
2021/11/06 04:14:22;;;;;;;722.07;45.37;;;5.20;99.90;;;;;;4985672;28;21185;-91
2021/11/06 04:16:50;;;;;;;615.70;48.20;;;5.20;99.90;;;;;;4982441;28;21023;-91
2021/11/06 04:19:17;;;;;;;280.43;30.93;;;5.00;99.90;;;;;;4969371;28;21064;-91
2021/11/06 04:21:45;;;;;;;690.77;49.50;;;5.10;99.90;;;;;;4971743;28;20633;-89
2021/11/06 04:24:12;;;;;;;518.80;40.40;;;5.10;99.90;;;;;;4977638;28;20656;-89
2021/11/06 04:26:39;;;;;;;439.07;39.30;;;5.00;99.90;;;;;;4971662;28;20657;-89
2021/11/06 04:29:06;;;;;;;398.07;34.87;;;4.90;99.90;;;;;;4982369;28;20621;-90
2021/11/06 04:31:33;;;;;;;265.70;29.23;;;5.00;99.90;;;;;;4977598;28;20677;-89
2021/11/06 04:34:01;;;;;;;327.17;31.47;;;5.00;99.90;;;;;;4984182;28;20622;-90
2021/11/06 04:36:28;;;;;;;395.03;34.13;;;5.00;99.90;;;;;;4975341;28;20660;-90
2021/11/06 04:38:56;;;;;;;191.30;25.90;;;5.10;99.90;;;;;;4973737;28;20637;-89
2021/11/06 04:41:23;;;;;;;504.47;37.30;;;5.10;99.90;;;;;;4983993;28;20628;-89
2021/11/06 04:43:50;;;;;;;719.57;52.03;;;5.10;99.90;;;;;;4974408;28;20634;-90
2021/11/06 04:46:17;;;;;;;515.90;40.00;;;5.10;99.90;;;;;;4965258;28;20672;-89
2021/11/06 04:48:43;;;;;;;543.93;42.47;;;5.20;99.90;;;;;;4996227;28;20650;-90
2021/11/06 04:51:11;;;;;;;547.87;41.77;;;5.10;99.90;;;;;;4976869;28;21238;-90
2021/11/06 04:53:38;;;;;;;573.00;42.37;;;5.00;99.90;;;;;;4969537;28;20650;-90
2021/11/06 04:56:07;;;;;;;560.83;47.20;;;5.00;99.90;;;;;;4968729;28;20645;-91
2021/11/06 04:58:34;;;;;;;360.27;33.87;;;4.90;99.90;;;;;;4998230;28;20621;-91
2021/11/06 05:01:01;;;;;;;712.60;52.00;;;4.90;99.90;;;;;;4986637;28;20650;-91
2021/11/06 05:03:28;;;;;;;459.10;39.40;;;4.80;99.90;;;;;;4995234;28;21088;-90
2021/11/06 05:05:57;;;;;;;384.80;35.57;;;4.90;99.90;;;;;;4978271;28;20624;-89
2021/11/06 05:08:24;;;;;;;583.10;45.97;;;5.00;99.90;;;;;;4989326;28;20653;-89
2021/11/06 05:10:51;;;;;;;480.53;40.80;;;4.90;99.90;;;;;;4972326;28;20640;-90
2021/11/06 05:13:19;;;;;;;314.27;32.50;;;4.90;99.90;;;;;;4983851;28;20640;-90
2021/11/06 05:15:46;;;;;;;576.77;47.20;;;4.90;99.90;;;;;;4969551;28;21039;-90
2021/11/06 05:18:17;;;;;;;526.73;43.27;;;5.00;99.90;;;;;;4976276;28;20647;-91
2021/11/06 05:20:45;;;;;;;441.03;38.03;;;5.00;99.90;;;;;;4978340;28;20995;-90
2021/11/06 05:23:14;;;;;;;195.60;26.87;;;4.90;99.90;;;;;;4992019;28;20628;-90
2021/11/06 05:25:41;;;;;;;222.83;26.80;;;4.90;99.90;;;;;;4979281;28;21020;-90
2021/11/06 05:28:08;;;;;;;351.33;32.70;;;4.90;99.90;;;;;;4966832;28;20681;-90
2021/11/06 05:30:39;;;;;;;346.40;34.53;;;4.90;99.90;;;;;;4977230;28;20625;-90
2021/11/06 05:33:06;;;;;;;481.93;38.27;;;4.90;99.90;;;;;;4979390;28;20661;-90
2021/11/06 05:35:33;;;;;;;176.67;25.63;;;4.70;99.90;;;;;;4953819;28;20629;-90
2021/11/06 05:38:00;;;;;;;287.53;30.83;;;4.80;99.90;;;;;;4974403;28;20657;-90
2021/11/06 05:40:27;;;;;;;296.13;31.50;;;4.80;99.90;;;;;;4979207;28;21175;-90
2021/11/06 05:42:54;;;;;;;288.77;32.90;;;4.80;99.90;;;;;;4990769;28;20715;-90
2021/11/06 05:45:21;;;;;;;376.63;35.07;;;4.70;99.90;;;;;;4974955;28;20928;-90
2021/11/06 05:47:49;;;;;;;249.80;28.47;;;4.80;99.90;;;;;;4983731;28;20686;-90
2021/11/06 05:50:17;;;;;;;252.37;27.53;;;4.80;99.90;;;;;;4969127;28;20612;-90
2021/11/06 05:52:45;;;;;;;184.87;23.50;;;4.70;99.90;;;;;;4964555;28;20672;-89
2021/11/06 05:55:14;;;;;;;82.43;19.80;;;4.40;99.90;;;;;;4979388;28;20656;-89
2021/11/06 05:57:41;;;;;;;102.27;20.60;;;4.50;99.90;;;;;;5005843;28;20653;-89
2021/11/06 06:00:11;;;;;;;99.80;17.40;;;4.50;99.90;;;;;;4975125;28;21057;-89
2021/11/06 06:02:38;;;;;;;37.97;15.30;;;4.50;99.90;;;;;;4976700;28;20735;-89
2021/11/06 06:05:09;;;;;;;42.80;15.47;;;4.40;99.90;;;;;;4974433;28;20617;-90
2021/11/06 06:07:36;;;;;;;28.23;15.63;;;4.30;99.90;;;;;;4969447;28;21286;-90
2021/11/06 06:10:05;;;;;;;24.77;14.37;;;4.20;99.90;;;;;;4970660;28;20633;-90
2021/11/06 06:12:33;;;;;;;47.60;16.90;;;4.10;99.90;;;;;;4972790;28;21052;-90
2021/11/06 06:15:02;;;;;;;60.83;16.70;;;4.20;99.90;;;;;;4975202;28;21252;-90
2021/11/06 06:17:31;;;;;;;47.43;16.80;;;4.20;99.90;;;;;;4971884;28;20664;-90
2021/11/06 06:19:58;;;;;;;88.57;19.00;;;4.20;99.90;;;;;;4968186;28;20651;-90
2021/11/06 06:22:26;;;;;;;77.47;19.23;;;4.20;99.90;;;;;;4969947;28;20987;-89
2021/11/06 06:24:53;;;;;;;86.80;18.73;;;4.30;99.90;;;;;;4963494;28;21179;-90
2021/11/06 06:27:20;;;;;;;169.70;22.07;;;4.30;99.90;;;;;;4982894;28;21051;-90
2021/11/06 06:29:47;;;;;;;144.70;24.33;;;4.30;99.90;;;;;;4957562;28;21161;-88
2021/11/06 06:32:14;;;;;;;116.37;20.87;;;4.20;99.90;;;;;;4968015;28;20817;-89
2021/11/06 06:34:41;;;;;;;102.27;21.50;;;4.30;99.90;;;;;;4990788;28;20658;-89
2021/11/06 06:37:08;;;;;;;119.80;21.90;;;4.30;99.90;;;;;;4979631;28;20661;-90
2021/11/06 06:39:37;;;;;;;149.13;20.43;;;4.30;99.90;;;;;;4969081;28;20629;-90
2021/11/06 06:42:04;;;;;;;54.33;17.53;;;4.20;99.90;;;;;;4974628;28;20634;-88
2021/11/06 06:44:32;;;;;;;142.10;22.37;;;4.20;99.90;;;;;;4972212;28;21179;-90
2021/11/06 06:46:59;;;;;;;39.53;17.70;;;4.10;99.90;;;;;;4982636;28;20737;-90
2021/11/06 06:49:26;;;;;;;58.83;18.30;;;4.10;99.90;;;;;;4977795;28;20632;-90
2021/11/06 06:51:53;;;;;;;65.47;18.50;;;4.30;99.90;;;;;;4988661;28;20758;-88
2021/11/06 06:54:20;;;;;;;94.97;20.10;;;4.30;99.90;;;;;;4976163;28;20636;-90
2021/11/06 06:56:48;;;;;;;175.57;21.53;;;4.30;99.90;;;;;;4981924;28;20649;-90
2021/11/06 06:59:15;;;;;;;128.40;22.93;;;4.30;99.90;;;;;;4960574;28;20623;-90
2021/11/06 07:01:42;;;;;;;152.40;23.40;;;4.20;99.90;;;;;;4969583;28;20608;-89
2021/11/06 07:04:09;;;;;;;180.73;23.70;;;4.30;99.90;;;;;;4988412;28;20622;-91
2021/11/06 07:06:36;;;;;;;223.17;23.97;;;4.30;99.90;;;;;;4989478;28;21452;-92
2021/11/06 07:09:04;;;;;;;225.77;24.97;;;4.30;99.90;;;;;;4985090;28;20633;-93
2021/11/06 07:11:30;;;;;;;189.63;24.20;;;4.30;99.90;;;;;;4991063;28;20660;-91
2021/11/06 07:13:59;;;;;;;224.40;25.13;;;4.30;99.90;;;;;;4997812;28;20635;-90
2021/11/06 07:16:26;;;;;;;245.03;26.50;;;4.30;99.90;;;;;;4968285;28;20660;-91
2021/11/06 07:18:54;;;;;;;227.43;27.60;;;4.30;99.90;;;;;;4968133;28;20648;-92
2021/11/06 07:21:21;;;;;;;241.07;26.77;;;4.20;99.90;;;;;;4984023;28;20678;-91
2021/11/06 07:23:48;;;;;;;229.90;26.03;;;4.30;99.90;;;;;;4987612;28;20633;-92
2021/11/06 07:26:15;;;;;;;163.00;23.23;;;4.30;99.90;;;;;;4982497;28;20632;-91
2021/11/06 07:28:42;;;;;;;184.63;24.63;;;4.30;99.90;;;;;;4977601;28;20643;-93
2021/11/06 07:31:12;;;;;;;146.47;22.37;;;4.30;99.90;;;;;;4991113;28;20641;-92
2021/11/06 07:33:39;;;;;;;157.63;24.03;;;4.30;99.90;;;;;;5020005;28;20961;-91
2021/11/06 07:36:06;;;;;;;123.63;21.80;;;4.30;99.90;;;;;;4995317;28;20778;-92
2021/11/06 07:38:32;;;;;;;58.77;18.53;;;4.30;99.90;;;;;;4997204;28;20655;-90
2021/11/06 07:40:59;;;;;;;62.87;18.20;;;4.50;99.90;;;;;;5018775;28;20767;-89
2021/11/06 07:43:29;;;;;;;114.83;21.73;;;4.40;99.90;;;;;;4996972;28;20867;-92
2021/11/06 07:45:56;;;;;;;89.63;19.70;;;4.40;99.90;;;;;;4968243;28;20644;-91
2021/11/06 07:48:25;;;;;;;55.53;15.97;;;4.50;99.90;;;;;;4995859;28;20636;-91
2021/11/06 07:50:52;;;;;;;69.70;17.87;;;4.40;99.90;;;;;;4993639;28;20667;-91
2021/11/06 07:53:21;;;;;;;99.33;19.20;;;4.40;99.90;;;;;;4995667;28;20775;-91
2021/11/06 07:55:48;;;;;;;85.57;18.60;;;4.40;99.90;;;;;;5004877;28;21408;-91
2021/11/06 07:58:16;;;;;;;99.93;18.90;;;4.50;99.90;;;;;;4989876;28;20632;-92
2021/11/06 08:00:43;;;;;;;63.87;17.50;;;4.50;99.90;;;;;;4977543;28;20664;-92
2021/11/06 08:03:15;;;;;;;87.33;16.00;;;4.60;99.90;;;;;;4977157;28;20637;-92
2021/11/06 08:05:44;;;;;;;67.07;15.87;;;4.60;99.90;;;;;;4977156;28;20687;-92
2021/11/06 08:08:12;;;;;;;121.90;17.13;;;4.60;99.90;;;;;;4996814;28;20634;-91
2021/11/06 08:10:43;;;;;;;76.40;15.70;;;4.70;99.90;;;;;;5033518;28;20703;-91
2021/11/06 08:13:11;;;;;;;70.30;17.33;;;4.70;99.90;;;;;;5006604;28;21116;-91
2021/11/06 08:15:39;;;;;;;78.10;15.90;;;4.80;99.90;;;;;;4986412;28;20678;-91
2021/11/06 08:18:07;;;;;;;80.00;16.13;;;4.90;99.90;;;;;;5002467;28;20638;-91
2021/11/06 08:20:35;;;;;;;73.43;17.13;;;4.60;99.90;;;;;;4996661;28;20657;-92
2021/11/06 08:23:05;;;;;;;81.97;17.20;;;4.60;99.90;;;;;;5004649;28;20667;-91
2021/11/06 08:25:32;;;;;;;53.93;17.90;;;4.50;99.90;;;;;;5015480;28;21186;-90
2021/11/06 08:28:01;;;;;;;74.30;18.73;;;4.50;99.90;;;;;;5000013;28;20992;-92
2021/11/06 08:30:28;;;;;;;54.90;18.80;;;4.50;99.90;;;;;;4984579;28;20661;-92
2021/11/06 08:32:58;;;;;;;55.97;15.93;;;4.50;99.90;;;;;;4980283;28;20665;-91
2021/11/06 08:35:28;;;;;;;73.87;17.37;;;4.60;99.90;;;;;;4982867;28;20639;-92
2021/11/06 08:37:56;;;;;;;132.57;19.97;;;4.70;99.90;;;;;;4976646;28;20702;-91
2021/11/06 08:40:26;;;;;;;89.97;17.77;;;4.60;99.90;;;;;;4992262;28;20676;-91
2021/11/06 08:42:54;;;;;;;137.70;21.10;;;4.50;99.90;;;;;;5001446;28;20628;-93
2021/11/06 08:45:23;;;;;;;95.53;20.30;;;4.60;99.90;;;;;;4981990;28;20624;-92
2021/11/06 08:47:51;;;;;;;97.53;19.80;;;4.70;99.90;;;;;;4984663;28;20644;-92
2021/11/06 09:21:36;;;;;;;89.93;21.10;;;5.30;99.90;;;;;;5087662;22;20678;-93
2021/11/06 09:24:10;;;;;;;151.57;26.17;;;5.20;99.90;;;;;;5045842;28;20649;-92
2021/11/06 09:26:42;;;;;;;43.33;23.67;;;5.30;99.90;;;;;;5052145;28;20687;-93
2021/11/06 09:29:11;;;;;;;141.13;24.60;;;5.40;99.90;;;;;;5044651;28;20618;-92
2021/11/06 09:35:25;;;;;;;109.13;23.10;;;5.40;99.90;;;;;;5026167;28;21012;-92
2021/11/06 09:37:52;;;;;;;75.37;21.40;;;5.40;99.90;;;;;;5053508;28;20977;-91
2021/11/06 09:40:21;;;;;;;53.67;25.30;;;5.50;99.90;;;;;;5046879;28;20658;-89
2021/11/06 09:42:49;;;;;;;45.23;23.83;;;5.50;99.90;;;;;;5052863;28;20654;-92
2021/11/06 09:45:17;;;;;;;44.50;22.43;;;5.70;99.90;;;;;;5048799;28;21326;-92
2021/11/06 09:47:45;;;;;;;55.90;22.57;;;5.80;99.90;;;;;;5048977;28;20687;-92
2021/11/06 09:50:37;;;;;;;76.97;27.70;;;5.60;99.90;;;;;;5046214;28;20939;-91
2021/11/06 09:53:04;;;;;;;71.03;25.73;;;5.50;99.90;;;;;;5045295;28;20684;-92
2021/11/06 09:55:55;;;;;;;144.00;27.07;;;5.50;99.90;;;;;;5049768;28;20634;-92
2021/11/06 09:58:24;;;;;;;37.60;26.57;;;5.40;99.90;;;;;;5044505;28;20634;-92
2021/11/06 10:00:51;;;;;;;197.70;31.43;;;5.60;99.90;;;;;;5048934;28;20622;-93
2021/11/06 10:03:18;;;;;;;86.83;26.57;;;5.50;99.90;;;;;;5054036;28;20640;-92
2021/11/06 10:05:51;;;;;;;107.50;26.23;;;5.60;99.90;;;;;;5052076;28;20627;-92
2021/11/06 10:08:40;;;;;;;44.40;24.60;;;5.40;99.90;;;;;;5047769;28;20634;-91
2021/11/06 10:14:34;;;;;;;124.33;28.30;;;5.70;99.90;;;;;;5055202;28;20675;-91
2021/11/06 10:31:31;;;;;;;125.27;29.93;;;5.70;99.90;;;;;;4975181;28;20639;-91
2021/11/06 10:34:25;;;;;;;40.60;26.80;;;5.60;99.90;;;;;;4976140;28;20804;-91
2021/11/06 10:36:57;;;;;;;43.00;26.60;;;5.80;99.90;;;;;;4976955;28;20692;-92
2021/11/06 10:42:12;;;;;;;40.30;28.53;;;5.80;99.90;;;;;;5057375;28;21052;-92
2021/11/06 10:44:47;;;;;;;48.33;29.20;;;5.80;99.90;;;;;;5061498;28;20618;-92
2021/11/06 10:47:16;;;;;;;127.23;31.70;;;5.80;99.90;;;;;;5058392;28;20657;-92
2021/11/06 10:50:07;;;;;;;56.23;29.87;;;5.90;99.90;;;;;;5058001;28;21188;-93
2021/11/06 10:52:55;;;;;;;38.80;28.37;;;5.90;99.90;;;;;;5052898;28;21129;-92
2021/11/06 10:55:22;;;;;;;48.87;28.20;;;6.10;99.90;;;;;;5053572;28;20632;-93
2021/11/06 10:57:57;;;;;;;35.13;27.90;;;6.20;99.90;;;;;;5052744;28;20632;-92
2021/11/06 11:03:26;;;;;;;41.40;29.97;;;6.10;99.90;;;;;;5057200;28;20716;-93
2021/11/06 11:08:44;;;;;;;106.07;29.47;;;6.20;99.90;;;;;;5063593;28;20626;-93
2021/11/06 11:11:11;;;;;;;144.80;32.53;;;6.10;99.90;;;;;;5066133;28;20622;-92
2021/11/06 11:13:51;;;;;;;34.07;28.47;;;6.10;99.90;;;;;;5070051;28;20680;-93
2021/11/06 11:16:21;;;;;;;31.80;28.63;;;6.20;99.90;;;;;;5069553;28;20629;-93
2021/11/06 11:18:53;;;;;;;62.17;32.93;;;6.10;99.90;;;;;;5071061;28;20606;-92
2021/11/06 11:21:27;;;;;;;39.00;28.77;;;6.10;99.90;;;;;;5066243;28;21295;-93
2021/11/06 11:26:38;;;;;;;35.97;30.67;;;6.20;99.90;;;;;;5068439;28;20648;-92
2021/11/06 11:29:20;;;;;;;30.40;27.40;;;6.30;99.90;;;;;;5063138;28;20614;-94
2021/11/06 11:34:32;;;;;;;48.00;36.33;;;6.50;99.90;;;;;;5064198;28;20668;-92
2021/11/06 11:37:16;;;;;;;36.47;29.67;;;6.40;99.90;;;;;;5059542;28;20630;-92
2021/11/06 11:39:43;;;;;;;35.17;31.47;;;6.40;99.90;;;;;;5064271;28;20672;-93
2021/11/06 11:42:44;;;;;;;73.93;30.00;;;6.40;99.90;;;;;;5074049;28;20715;-93
2021/11/06 11:45:39;;;;;;;39.10;30.23;;;6.40;99.90;;;;;;5071427;28;20638;-94
2021/11/06 11:48:10;;;;;;;32.07;28.67;;;6.60;99.90;;;;;;5063152;28;20629;-93
2021/11/06 11:50:41;;;;;;;32.10;28.80;;;6.60;99.90;;;;;;5062892;28;20620;-91
2021/11/06 11:53:21;;;;;;;30.63;27.43;;;6.50;99.90;;;;;;5060748;28;20674;-92
2021/11/06 11:58:37;;;;;;;38.17;30.23;;;6.70;99.90;;;;;;5066066;28;20695;-92
2021/11/06 12:03:47;;;;;;;33.37;29.83;;;6.70;99.90;;;;;;5062360;28;21123;-93
2021/11/06 12:06:28;;;;;;;32.60;29.40;;;6.90;99.90;;;;;;5048869;28;20810;-93
2021/11/06 12:08:58;;;;;;;46.43;31.37;;;6.80;99.90;;;;;;5049700;28;20707;-92
2021/11/06 12:11:33;;;;;;;33.60;29.40;;;7.00;99.90;;;;;;5050523;28;20626;-92
2021/11/06 12:14:15;;;;;;;36.13;31.43;;;6.80;99.90;;;;;;5042818;28;20675;-92
2021/11/06 12:16:47;;;;;;;33.30;30.00;;;6.80;99.90;;;;;;5045484;28;20641;-94
2021/11/06 12:19:34;;;;;;;33.03;29.73;;;6.60;99.90;;;;;;5056181;28;20634;-92
2021/11/06 12:22:23;;;;;;;33.20;29.97;;;6.80;99.90;;;;;;5060670;28;20672;-93
2021/11/06 12:25:15;;;;;;;35.70;32.30;;;7.00;99.90;;;;;;5045235;28;20636;-93
2021/11/06 12:27:52;;;;;;;36.83;32.80;;;7.00;99.90;;;;;;5057500;28;21200;-93
2021/11/06 12:30:29;;;;;;;34.60;30.93;;;7.00;99.90;;;;;;5054283;28;20629;-93
2021/11/06 12:32:59;;;;;;;38.03;33.90;;;6.90;99.90;;;;;;5056953;28;20670;-93
2021/11/06 12:35:27;;;;;;;36.20;32.60;;;6.90;99.90;;;;;;5056572;28;21612;-93
2021/11/06 12:38:04;;;;;;;34.23;30.80;;;6.90;99.90;;;;;;5057287;28;20633;-92
2021/11/06 12:40:55;;;;;;;33.53;30.07;;;6.90;99.90;;;;;;5074116;28;20637;-93
2021/11/06 12:43:30;;;;;;;29.83;26.70;;;7.00;99.90;;;;;;5064561;28;20653;-93
2021/11/06 12:46:15;;;;;;;31.80;28.50;;;7.20;99.90;;;;;;5057023;28;20631;-93
2021/11/06 12:48:45;;;;;;;32.83;29.57;;;7.00;99.90;;;;;;5051718;28;20634;-93
2021/11/06 12:51:18;;;;;;;32.83;29.70;;;7.10;99.90;;;;;;5066596;28;20667;-94
2021/11/06 12:56:50;;;;;;;33.97;30.67;;;7.10;99.90;;;;;;5057714;28;20709;-92
2021/11/06 12:59:20;;;;;;;33.17;29.77;;;7.10;99.90;;;;;;5060055;28;20695;-94
2021/11/06 13:02:00;;;;;;;34.00;30.80;;;7.10;99.90;;;;;;5062188;28;20721;-93
2021/11/06 13:04:29;;;;;;;39.87;35.87;;;7.10;99.90;;;;;;5058253;28;20678;-93
2021/11/06 13:07:03;;;;;;;35.80;32.40;;;7.10;99.90;;;;;;5052082;28;20673;-91
2021/11/06 13:09:43;;;;;;;;;;;;;;;;;;;;;
2021/11/06 13:12:15;;;;;;;37.33;32.13;;;7.10;99.90;;;;;;5045225;28;20648;-93
2021/11/06 13:14:47;;;;;;;37.80;34.20;;;7.10;99.90;;;;;;5050737;28;20689;-93
2021/11/06 13:17:22;;;;;;;36.23;32.30;;;7.10;99.90;;;;;;5059830;28;21180;-95
2021/11/06 13:20:04;;;;;;;38.30;34.50;;;7.30;99.90;;;;;;5055977;28;20741;-94
2021/11/06 13:22:56;;;;;;;38.17;34.57;;;7.50;99.90;;;;;;5058344;28;20715;-95
2021/11/06 13:25:30;;;;;;;37.20;33.70;;;7.70;99.90;;;;;;5058740;28;20634;-94
2021/11/06 13:28:14;;;;;;;39.77;35.77;;;7.70;99.90;;;;;;5056482;28;20659;-94
2021/11/06 13:30:54;;;;;;;37.67;33.97;;;7.70;99.90;;;;;;5062206;28;20630;-95
2021/11/06 13:33:29;;;;;;;41.03;34.23;;;7.70;99.90;;;;;;5069516;28;20650;-95
2021/11/06 13:36:21;;;;;;;38.00;34.10;;;7.50;99.90;;;;;;5070227;28;20655;-96
2021/11/06 13:41:43;;;;;;;37.80;34.00;;;7.40;99.90;;;;;;5063906;28;20688;-96
2021/11/06 13:44:23;;;;;;;37.30;33.80;;;7.40;99.90;;;;;;5058152;28;20638;-95
2021/11/06 13:49:45;;;;;;;38.97;35.37;;;7.40;99.90;;;;;;5064745;28;20618;-95
2021/11/06 13:52:16;;;;;;;39.27;35.57;;;7.30;99.90;;;;;;5062983;28;20648;-96
2021/11/06 13:54:57;;;;;;;40.30;36.40;;;7.30;99.90;;;;;;5065330;28;20664;-95
2021/11/06 13:57:29;;;;;;;38.67;34.97;;;7.40;99.90;;;;;;5063934;28;20626;-94
2021/11/06 14:00:11;;;;;;;37.30;33.80;;;7.30;99.90;;;;;;5070349;28;20629;-96
2021/11/06 14:02:45;;;;;;;38.03;34.53;;;7.20;99.90;;;;;;5059878;28;20707;-95
2021/11/06 15:05:43;;;;;;;44.43;39.83;;;6.00;99.90;;;;;;5134967;22;20694;-96
2021/11/06 15:57:57;;;;;;;53.77;42.83;;;5.40;99.90;;;;;;5033003;28;20657;-95